Thornton, CO (80241)

2:46 PM MST on February 07, 2016 (GMT -0700)
Shadow Ridge | | Change Station
CLOSE
Current Station
Personal Weather Station
Location: Thornton, CO
Elevation: 5335 ft
Nearby Weather Stations

Elev 5335 ft 39.94 °N, 104.94 °W | Updated 57 seconds ago

Partly Cloudy
Partly Cloudy
32.4 °F
Feels Like 22 °F
N
14.5
Wind Variable Wind from East
Gusts 19.9 mph

Today
High -- | Low -- °F
--% Chance of Precip.
Yesterday
High -- | Low -- °F
Precip. -- in
Pressure 30.27 in
Visibility 10.0 miles
Clouds Clear
Windchill 22 °F
Dew Point 23 °F
Humidity 67%
Rainfall 0.00 in
Snow Depth Not available.
7:02 AM 5:25 PM
Waning Crescent, 1% visible
METAR KEIK 072135Z AUTO 11011KT 10SM CLR 01/M05 A3027 RMK AO2 T00081054
Pressure 30.27 in
Visibility 10.0 miles
Clouds Clear
Windchill 22 °F
Dew Point 23 °F
Humidity 67%
Rainfall 0.00 in
Snow Depth Not available.
7:02 AM 5:25 PM
Waning Crescent, 1% visible
METAR KEIK 072135Z AUTO 11011KT 10SM CLR 01/M05 A3027 RMK AO2 T00081054

10-Day Weather Forecast

Almanac

Astronomy

Feb. 07, 2016 Rise Set
Actual Time
Civil Twilight
Nautical Twilight
Astronomical Twilight
Moon
Length of Visible Light
Length of Day
Tomorrow will be .
, % of the Moon is Illuminated

Today's Extremes

State Highs State Lows

Community

WunderPhotos

Upload Photos

1,891,304 photos uploaded!

WunderBlog® & News

Nearby

Air Quality

  Air Quality AQ Index Pollutant
Not available.

Snow Depth

Station Depth Elevation

Earthquake Activity

City Distance Mag. Time & Date
Minimum magnitude displayed is 2.5.

Coastal Water Temperatures

Place Temperature

Stations

Nearby Weather Stations

Station Location Temp. Windchill Dew Point Humidity Wind Precip. Elev Updated Type
                   

Watches & Warnings

There are currently no watches in effect.